Time;durP1;ratioP1;P1;durP2;ratioP2;P2;SDS_P1;SDS_P2;PMS_P1;PMS_P2;Temp;Humidity;BMP_temperature;BMP_pressure;BME280_temperature;BME280_humidity;BME280_pressure;Samples;Min_cycle;Max_cycle;Signal;HPM_P1;HPM_P2
2022/11/08 00:03:30;;;;;;;77.85;42.25;;;;;;;10.38;86.35;99970.09;5012377;28;20037;-69
2022/11/08 00:14:08;;;;;;;70.30;43.88;;;;;;;10.62;84.64;99971.72;5012361;28;20058;-69
2022/11/08 00:16:33;;;;;;;71.82;43.42;;;;;;;10.65;84.26;99966.25;5012081;28;20412;-69
2022/11/08 00:18:59;;;;;;;65.10;41.35;;;;;;;10.74;84.35;99968.28;4994589;28;20163;-69
2022/11/08 00:21:24;;;;;;;73.38;43.65;;;;;;;10.75;84.28;99973.56;5012121;28;20107;-69
2022/11/08 00:23:50;;;;;;;70.80;43.50;;;;;;;10.78;84.03;99960.88;4993797;28;20045;-68
2022/11/08 00:26:15;;;;;;;73.45;42.92;;;;;;;10.75;83.87;99965.16;4993776;28;20044;-68
2022/11/08 00:28:41;;;;;;;67.40;41.25;;;;;;;10.69;83.90;99958.06;5012078;28;20531;-68
2022/11/08 00:31:06;;;;;;;70.57;43.47;;;;;;;10.72;84.29;99951.00;5011889;28;20428;-69
2022/11/08 00:33:32;;;;;;;67.90;43.42;;;;;;;10.78;84.08;99946.88;5011961;28;20037;-69
2022/11/08 00:35:58;;;;;;;73.68;44.28;;;;;;;10.86;83.44;99953.66;4994079;28;20030;-69
2022/11/08 00:38:24;;;;;;;69.75;42.17;;;;;;;10.81;83.39;99940.66;5011826;28;20487;-69
2022/11/08 00:40:49;;;;;;;69.50;41.90;;;;;;;10.70;83.64;99944.91;4993517;28;20038;-69
2022/11/08 00:43:15;;;;;;;73.25;43.55;;;;;;;10.41;85.49;99938.72;5010750;28;20499;-69
2022/11/08 00:45:40;;;;;;;70.38;44.28;;;;;;;10.47;85.50;99936.59;5011705;28;20041;-69
2022/11/08 00:48:06;;;;;;;74.10;45.00;;;;;;;10.63;84.91;99934.19;4993717;28;20497;-69
2022/11/08 00:50:31;;;;;;;70.78;44.20;;;;;;;10.64;84.97;99930.25;5011436;28;20519;-69
2022/11/08 00:52:56;;;;;;;71.80;42.75;;;;;;;10.69;84.16;99930.09;5011529;28;20021;-69
2022/11/08 00:55:22;;;;;;;71.57;44.50;;;;;;;10.68;84.43;99931.22;5011882;28;20088;-69
2022/11/08 00:57:47;;;;;;;68.68;44.85;;;;;;;10.76;84.31;99919.25;5010699;28;20033;-69
2022/11/08 01:00:13;;;;;;;66.60;42.88;;;;;;;10.81;84.13;99919.09;5011571;28;20030;-69
2022/11/08 01:02:39;;;;;;;72.70;45.25;;;;;;;10.90;83.50;99921.09;4993829;28;20088;-69
2022/11/08 01:05:04;;;;;;;74.68;45.33;;;;;;;10.95;82.80;99916.16;4993581;28;20041;-69
2022/11/08 01:07:30;;;;;;;64.30;41.88;;;;;;;10.98;82.60;99911.88;5011388;28;20032;-69
2022/11/08 01:09:55;;;;;;;68.10;42.08;;;;;;;10.79;83.61;99914.94;5011516;28;20030;-69
2022/11/08 01:12:21;;;;;;;75.70;42.90;;;;;;;10.82;83.81;99906.75;5009591;28;20041;-69
2022/11/08 01:14:46;;;;;;;67.22;43.42;;;;;;;10.86;83.81;99908.88;5011141;28;20033;-69
2022/11/08 01:17:12;;;;;;;70.10;44.17;;;;;;;10.91;83.29;99900.34;5011345;28;20033;-69
2022/11/08 01:19:37;;;;;;;70.28;41.40;;;;;;;10.93;82.83;99901.66;4993562;28;20033;-69
2022/11/08 01:22:02;;;;;;;72.28;40.88;;;;;;;10.98;83.07;99902.66;5011257;28;20037;-69
2022/11/08 01:24:28;;;;;;;66.20;42.13;;;;;;;11.03;83.12;99894.09;5011250;28;20026;-69
2022/11/08 01:26:53;;;;;;;67.50;43.13;;;;;;;11.02;83.11;99890.47;5010478;28;20026;-69
2022/11/08 01:29:19;;;;;;;65.95;41.38;;;;;;;11.06;82.27;99885.88;4993658;28;20473;-69
2022/11/08 01:31:44;;;;;;;67.15;41.65;;;;;;;11.03;82.96;99886.53;4993578;28;20101;-69
2022/11/08 01:34:10;;;;;;;72.45;42.92;;;;;;;11.04;82.41;99879.78;5011270;28;20460;-69
2022/11/08 01:36:35;;;;;;;62.05;42.47;;;;;;;11.02;82.23;99879.28;5015135;28;20026;-69
2022/11/08 01:39:01;;;;;;;66.20;42.25;;;;;;;11.02;82.47;99870.88;4997948;28;20030;-69
2022/11/08 01:41:26;;;;;;;70.80;44.08;;;;;;;11.00;82.61;99883.56;4996343;28;20074;-69
2022/11/08 01:43:57;;;;;;;111.68;58.05;;;;;;;11.01;82.59;99886.03;5014698;28;20038;-69
2022/11/08 01:46:36;;;;;;;97.65;55.15;;;;;;;10.98;82.95;99881.09;5014176;28;20033;-69
2022/11/08 01:49:07;;;;;;;128.93;64.07;;;;;;;11.01;82.28;99882.41;4996789;28;20050;-69
2022/11/08 01:51:55;;;;;;;111.18;57.08;;;;;;;11.01;82.75;99888.84;5014870;28;20061;-69
2022/11/08 01:54:32;;;;;;;79.25;46.65;;;;;;;10.93;82.85;99887.69;5014352;28;20025;-69
2022/11/08 01:57:02;;;;;;;73.57;47.00;;;;;;;10.91;83.30;99894.75;4997117;28;20516;-69
2022/11/08 01:59:29;;;;;;;73.18;44.67;;;;;;;10.97;82.89;99892.63;4996407;28;20034;-69
2022/11/08 02:01:55;;;;;;;68.28;42.10;;;;;;;11.03;82.61;99886.53;5029916;28;20099;-69
2022/11/08 02:04:21;;;;;;;80.53;46.50;;;;;;;11.08;82.67;99888.34;5014288;28;20436;-69
2022/11/08 02:06:47;;;;;;;72.13;42.95;;;;;;;11.07;82.49;99881.91;5013869;28;20045;-69
2022/11/08 02:09:15;;;;;;;70.70;42.55;;;;;;;11.06;82.73;99883.06;4996785;28;20489;-69
2022/11/08 02:11:41;;;;;;;63.95;41.50;;;;;;;10.99;83.20;99882.75;5014580;28;20160;-69
2022/11/08 02:14:07;;;;;;;65.60;41.28;;;;;;;10.78;83.84;99886.16;5014400;28;20472;-69
2022/11/08 02:16:32;;;;;;;65.40;41.60;;;;;;;10.34;86.35;99877.63;5013694;28;20064;-69
2022/11/08 02:18:58;;;;;;;70.25;42.38;;;;;;;10.58;85.94;99884.81;5014204;28;20519;-68
2022/11/08 02:21:33;;;;;;;69.88;40.22;;;;;;;10.56;85.60;99883.47;4996747;28;20037;-69
2022/11/08 02:24:07;;;;;;;60.17;39.95;;;;;;;10.56;85.93;99883.47;4996481;28;20030;-69
2022/11/08 02:26:34;;;;;;;63.13;41.72;;;;;;;10.67;85.94;99882.03;5014038;28;20413;-69
2022/11/08 02:29:23;;;;;;;64.95;40.13;;;;;;;10.52;85.89;99878.53;5014163;28;20507;-69
2022/11/08 02:31:49;;;;;;;57.97;38.47;;;;;;;10.44;86.67;99875.69;5013277;28;20033;-69
2022/11/08 02:34:14;;;;;;;62.50;38.92;;;;;;;10.25;87.95;99874.78;5014036;28;20026;-69
2022/11/08 02:36:42;;;;;;;63.70;37.75;;;;;;;10.21;88.14;99886.97;5014158;28;20088;-69
2022/11/08 02:39:08;;;;;;;61.00;37.72;;;;;;;10.13;88.71;99882.94;5013993;28;20037;-69
2022/11/08 02:41:33;;;;;;;64.25;40.58;;;;;;;10.20;88.10;99888.91;5013640;28;20053;-69
2022/11/08 02:43:59;;;;;;;59.53;38.42;;;;;;;10.17;88.32;99900.75;5013602;28;20436;-69
2022/11/08 02:46:24;;;;;;;60.22;40.33;;;;;;;10.20;88.72;99907.66;5012743;28;20401;-69
2022/11/08 02:48:50;;;;;;;63.38;39.40;;;;;;;9.98;89.46;99903.78;5013728;28;20432;-69
2022/11/08 02:51:15;;;;;;;67.63;41.75;;;;;;;10.05;90.31;99908.91;4996258;28;20088;-69
2022/11/08 02:53:41;;;;;;;77.30;44.75;;;;;;;9.94;90.13;99905.53;4996287;28;20025;-69
2022/11/08 02:56:06;;;;;;;71.05;41.78;;;;;;;9.73;91.44;99900.50;5013498;28;20029;-69
2022/11/08 02:58:32;;;;;;;66.18;42.70;;;;;;;9.68;92.82;99901.47;5013525;28;20128;-69
2022/11/08 03:00:57;;;;;;;67.55;42.40;;;;;;;10.00;90.65;99895.06;5012908;28;20401;-69
2022/11/08 03:03:23;;;;;;;77.70;42.90;;;;;;;10.23;89.48;99895.84;4995606;28;20524;-69
2022/11/08 03:05:48;;;;;;;82.43;38.88;;;;;;;10.40;88.16;99893.09;5013540;28;20018;-69
2022/11/08 03:08:14;;;;;;;68.68;39.97;;;;;;;10.49;87.43;99893.16;4995742;28;20033;-69
2022/11/08 03:10:39;;;;;;;66.03;39.13;;;;;;;10.56;87.34;99897.47;4995853;28;20627;-69
2022/11/08 03:13:05;;;;;;;67.32;39.15;;;;;;;10.61;86.58;99897.31;5012707;28;20026;-68
2022/11/08 03:15:32;;;;;;;63.38;40.33;;;;;;;10.63;86.35;99895.03;4995164;28;20072;-69
2022/11/08 03:17:58;;;;;;;61.00;38.30;;;;;;;10.71;85.46;99893.41;5013026;28;20034;-69
2022/11/08 03:20:25;;;;;;;62.13;41.22;;;;;;;10.75;85.19;99891.59;5012241;28;20025;-69
2022/11/08 03:23:01;;;;;;;59.13;37.50;;;;;;;10.70;85.99;99889.75;4995474;28;20087;-69
2022/11/08 03:25:27;;;;;;;75.85;44.92;;;;;;;10.49;86.92;99893.16;5012835;28;20029;-69
2022/11/08 03:27:52;;;;;;;70.85;45.05;;;;;;;10.58;86.67;99897.97;5013075;28;20413;-69
2022/11/08 03:30:18;;;;;;;68.75;44.58;;;;;;;10.53;85.75;99890.53;4995358;28;20022;-69
2022/11/08 03:32:45;;;;;;;79.32;45.00;;;;;;;10.53;86.63;99890.53;5012624;28;20033;-69
2022/11/08 03:35:11;;;;;;;78.00;42.45;;;;;;;10.21;88.36;99895.34;5012206;28;20034;-69
2022/11/08 03:37:37;;;;;;;69.38;42.30;;;;;;;10.23;88.71;99902.25;4995248;28;20034;-69
2022/11/08 03:40:03;;;;;;;75.20;41.92;;;;;;;10.31;88.72;99889.44;4995535;28;20029;-69
2022/11/08 03:42:28;;;;;;;62.85;40.75;;;;;;;10.48;87.75;99894.31;5026636;28;20432;-69
2022/11/08 03:44:54;;;;;;;55.88;37.80;;;;;;;10.58;86.77;99895.16;5012545;28;20034;-69
2022/11/08 03:47:19;;;;;;;62.15;39.65;;;;;;;10.70;86.22;99895.34;5012367;28;20033;-69
2022/11/08 03:49:44;;;;;;;59.80;39.42;;;;;;;10.72;85.49;99893.06;5011798;28;20028;-69
2022/11/08 03:52:10;;;;;;;65.97;38.30;;;;;;;10.74;85.20;99887.97;4995121;28;20025;-69
2022/11/08 03:54:35;;;;;;;59.90;37.75;;;;;;;10.65;85.21;99881.53;4994647;28;20030;-69
2022/11/08 03:57:01;;;;;;;54.13;38.53;;;;;;;10.59;85.93;99880.03;5012091;28;20022;-69
2022/11/08 03:59:26;;;;;;;70.00;41.08;;;;;;;10.04;88.19;99888.50;5012313;28;20069;-69
2022/11/08 04:01:52;;;;;;;76.30;42.17;;;;;;;9.80;89.49;99875.72;4994920;28;20052;-69
2022/11/08 04:04:17;;;;;;;78.10;42.03;;;;;;;9.81;90.96;99870.97;5011501;28;20022;-69
2022/11/08 04:06:43;;;;;;;69.72;42.33;;;;;;;10.02;90.20;99876.03;5012449;28;20038;-69
2022/11/08 04:09:08;;;;;;;63.20;39.22;;;;;;;10.16;88.92;99882.34;5011982;28;20032;-69
2022/11/08 04:17:01;;;;;;;64.30;36.92;;;;;;;10.25;86.73;99891.56;5012328;28;20149;-69
2022/11/08 04:22:10;;;;;;;65.35;38.80;;;;;;;10.44;85.98;99898.06;5012092;28;20554;-69
2022/11/08 04:24:36;;;;;;;61.22;39.35;;;;;;;10.48;86.08;99899.09;5011701;28;20030;-69
2022/11/08 04:27:02;;;;;;;61.08;37.85;;;;;;;10.23;85.71;99901.44;5012064;28;20026;-69
2022/11/08 04:29:28;;;;;;;70.38;38.75;;;;;;;10.19;87.03;99903.19;5011940;28;20029;-69
2022/11/08 04:31:53;;;;;;;67.55;40.85;;;;;;;10.27;86.93;99910.00;5011736;28;20025;-69
2022/11/08 04:34:19;;;;;;;64.13;38.38;;;;;;;10.36;86.32;99906.09;5011167;28;20083;-69
2022/11/08 04:36:44;;;;;;;66.70;42.28;;;;;;;10.37;86.00;99907.72;5011913;28;20022;-69
2022/11/08 04:39:10;;;;;;;74.32;44.38;;;;;;;10.29;86.75;99910.50;5011883;28;20109;-69
2022/11/08 04:41:35;;;;;;;72.15;43.55;;;;;;;10.33;86.64;99908.69;4994144;28;20103;-69
2022/11/08 04:44:01;;;;;;;74.72;43.50;;;;;;;10.26;86.14;99917.56;4994054;28;20026;-69
2022/11/08 04:46:28;;;;;;;68.43;41.05;;;;;;;10.32;85.75;99912.66;4993811;28;20037;-69
2022/11/08 04:48:56;;;;;;;61.85;39.05;;;;;;;10.35;85.46;99917.59;4993249;28;20184;-69
2022/11/08 04:51:27;;;;;;;66.97;38.97;;;;;;;10.33;85.21;99919.88;5026782;28;20083;-69
2022/11/08 04:53:55;;;;;;;66.07;38.40;;;;;;;10.39;85.18;99918.59;5011486;28;20406;-69
2022/11/08 04:56:21;;;;;;;66.50;38.50;;;;;;;10.45;84.34;99920.13;4994139;28;20116;-69
2022/11/08 04:58:49;;;;;;;72.47;40.55;;;;;;;10.23;85.19;99921.81;5011646;28;20497;-69
2022/11/08 05:01:17;;;;;;;65.07;39.90;;;;;;;10.24;86.04;99931.03;5011518;28;20080;-69
2022/11/08 05:03:45;;;;;;;65.07;38.85;;;;;;;10.32;85.45;99921.03;5010693;28;20125;-69
2022/11/08 05:06:22;;;;;;;63.72;38.78;;;;;;;10.32;85.96;99929.41;5026648;28;20124;-69
2022/11/08 05:08:48;;;;;;;66.22;41.53;;;;;;;10.33;85.67;99931.06;5011400;28;20029;-69
2022/11/08 05:11:16;;;;;;;66.65;40.63;;;;;;;10.24;86.50;99926.25;5006443;28;20033;-68
2022/11/08 05:13:42;;;;;;;71.13;42.45;;;;;;;10.31;85.99;99925.78;5009939;28;20084;-69
2022/11/08 05:16:15;;;;;;;65.85;40.63;;;;;;;10.31;86.12;99933.38;5011376;28;20022;-69
2022/11/08 05:18:41;;;;;;;64.32;40.33;;;;;;;10.33;86.18;99934.69;5009778;28;20060;-69
2022/11/08 05:23:53;;;;;;;106.95;41.80;;;;;;;10.42;86.00;99939.53;5010903;28;20037;-69
2022/11/08 05:26:20;;;;;;;68.78;40.05;;;;;;;10.38;85.74;99940.13;5011361;28;20022;-69
2022/11/08 05:28:46;;;;;;;71.00;39.55;;;;;;;10.40;86.27;99942.63;5011274;28;20029;-67
2022/11/08 05:31:11;;;;;;;66.78;40.42;;;;;;;10.27;86.14;99941.56;5010235;28;20041;-69
2022/11/08 05:33:37;;;;;;;63.90;41.13;;;;;;;10.27;86.99;99940.75;5011416;28;20026;-68
2022/11/08 05:36:04;;;;;;;92.82;42.03;;;;;;;10.05;87.62;99945.25;5010854;28;20405;-68
2022/11/08 05:38:30;;;;;;;76.78;42.15;;;;;;;9.93;88.71;99949.44;5011396;28;20045;-69
2022/11/08 05:41:03;;;;;;;68.20;41.38;;;;;;;9.88;89.62;99948.75;5011228;28;20033;-68
2022/11/08 05:43:28;;;;;;;72.75;43.00;;;;;;;9.83;90.06;99949.69;5010276;28;20025;-70
2022/11/08 05:45:54;;;;;;;68.70;40.92;;;;;;;9.95;88.79;99951.91;5009793;28;20026;-71
2022/11/08 05:48:19;;;;;;;64.15;41.42;;;;;;;9.98;89.07;99942.91;5010277;28;20100;-70
2022/11/08 05:50:45;;;;;;;83.57;44.38;;;;;;;10.09;88.41;99949.88;5010895;28;20033;-69
2022/11/08 05:53:14;;;;;;;67.63;43.75;;;;;;;10.19;87.82;99942.34;5010647;28;20033;-69
2022/11/08 05:55:40;;;;;;;82.57;43.47;;;;;;;10.27;86.73;99943.56;5010459;28;20030;-69
2022/11/08 05:58:06;;;;;;;62.88;41.42;;;;;;;10.35;85.98;99948.34;5026189;28;20034;-69
2022/11/08 06:00:31;;;;;;;68.15;39.67;;;;;;;10.41;86.26;99949.91;4996745;28;20111;-69
2022/11/08 06:02:56;;;;;;;68.57;38.90;;;;;;;10.46;85.93;99952.53;5009874;28;20037;-69
2022/11/08 06:05:22;;;;;;;78.20;39.22;;;;;;;10.53;86.09;99958.50;5007163;28;20072;-69
2022/11/08 06:07:47;;;;;;;72.05;37.63;;;;;;;10.49;85.84;99951.88;5005070;28;20089;-69
2022/11/08 06:10:13;;;;;;;70.47;38.67;;;;;;;10.45;86.70;99953.69;5009701;28;20093;-69
2022/11/08 06:12:38;;;;;;;69.28;38.90;;;;;;;10.43;86.90;99956.00;5008884;28;20040;-69
2022/11/08 06:15:06;;;;;;;74.93;40.78;;;;;;;10.51;86.42;99960.81;5005496;28;20481;-69
2022/11/08 06:17:32;;;;;;;74.05;42.22;;;;;;;10.60;86.33;99962.78;4990565;28;20032;-69
2022/11/08 06:19:57;;;;;;;109.88;59.28;;;;;;;10.50;86.41;99953.56;5008351;28;20030;-69
2022/11/08 06:22:23;;;;;;;109.32;60.60;;;;;;;10.59;86.48;99961.13;4989977;28;20018;-69
2022/11/08 06:24:48;;;;;;;96.95;54.28;;;;;;;10.62;86.44;99950.13;5011123;28;20037;-70
2022/11/08 06:27:14;;;;;;;94.53;54.90;;;;;;;10.71;86.50;99958.56;5006184;28;20030;-69
2022/11/08 06:29:41;;;;;;;87.78;49.17;;;;;;;10.78;85.70;99958.06;4990264;28;20021;-69
2022/11/08 06:32:09;;;;;;;82.90;46.03;;;;;;;10.85;85.77;99964.03;5008300;28;20030;-72
2022/11/08 06:34:35;;;;;;;72.18;45.85;;;;;;;10.91;85.62;99954.31;5011178;28;20025;-69
2022/11/08 06:37:01;;;;;;;68.07;44.17;;;;;;;10.99;85.54;99960.28;4994675;28;20401;-69
2022/11/08 06:39:27;;;;;;;70.07;43.15;;;;;;;11.08;84.99;99964.72;5014110;28;20025;-70
2022/11/08 06:41:52;;;;;;;66.05;41.40;;;;;;;11.12;85.11;99962.13;4995278;28;20543;-70
2022/11/08 06:44:18;;;;;;;64.18;38.75;;;;;;;11.01;86.64;99961.59;4993324;28;20030;-70
2022/11/08 06:46:43;;;;;;;59.03;38.33;;;;;;;10.94;87.30;99961.25;5011450;28;20032;-69
2022/11/08 06:49:09;;;;;;;60.75;38.55;;;;;;;10.94;88.27;99961.25;4993990;28;20049;-69
2022/11/08 06:51:35;;;;;;;56.85;37.30;;;;;;;11.03;88.53;99964.91;5011595;28;20493;-70
2022/11/08 06:54:02;;;;;;;66.53;40.40;;;;;;;11.13;89.07;99962.94;4994069;28;20018;-69
2022/11/08 06:56:28;;;;;;;71.68;41.42;;;;;;;11.17;89.69;99958.34;4993052;28;20048;-70
2022/11/08 06:58:54;;;;;;;73.40;42.90;;;;;;;11.28;89.42;99968.06;5011685;28;20396;-69
2022/11/08 07:01:19;;;;;;;70.20;41.13;;;;;;;11.50;89.23;99958.69;5009780;28;20032;-72
2022/11/08 07:03:45;;;;;;;69.32;43.38;;;;;;;11.65;89.72;99970.56;5011146;28;20054;-71
2022/11/08 07:06:10;;;;;;;60.20;39.72;;;;;;;11.78;90.29;99971.53;4995272;28;20030;-69
2022/11/08 07:08:36;;;;;;;57.45;39.17;;;;;;;11.84;89.22;99969.38;5013449;28;20109;-70
2022/11/08 07:11:02;;;;;;;71.85;40.05;;;;;;;11.79;88.61;99971.22;5005238;28;20080;-69
2022/11/08 07:13:27;;;;;;;61.80;39.10;;;;;;;11.80;87.88;99974.81;4992133;28;20026;-70
2022/11/08 07:15:56;;;;;;;61.28;37.30;;;;;;;11.87;89.82;99968.72;4995214;28;20080;-70
2022/11/08 07:18:22;;;;;;;56.35;36.30;;;;;;;11.94;90.47;99967.09;4995391;28;20411;-70
2022/11/08 07:20:47;;;;;;;84.55;38.40;;;;;;;12.15;89.88;99974.81;5008032;28;20036;-73
2022/11/08 07:23:13;;;;;;;68.45;37.92;;;;;;;12.26;89.05;99968.84;4997008;28;20085;-71
2022/11/08 07:25:39;;;;;;;58.25;37.47;;;;;;;12.28;87.83;99964.56;4986918;28;20034;-71
2022/11/08 07:28:06;;;;;;;65.00;37.67;;;;;;;12.30;87.44;99976.25;5022511;28;20080;-70
2022/11/08 07:30:34;;;;;;;58.05;35.25;;;;;;;12.32;87.40;99970.31;5008979;28;20083;-70
2022/11/08 07:33:00;;;;;;;70.22;40.22;;;;;;;12.25;86.77;99972.81;5003192;28;20022;-70
2022/11/08 07:35:26;;;;;;;54.42;36.65;;;;;;;12.25;86.57;99975.63;5004601;28;20406;-70
2022/11/08 07:37:52;;;;;;;60.35;38.10;;;;;;;12.27;86.48;99965.72;5006013;28;20032;-70
2022/11/08 07:40:18;;;;;;;58.63;36.08;;;;;;;12.30;86.29;99959.44;4991707;28;20021;-70
2022/11/08 07:42:44;;;;;;;56.25;35.50;;;;;;;12.22;85.85;99963.06;5010079;28;20084;-70
2022/11/08 07:45:10;;;;;;;63.55;36.85;;;;;;;12.24;86.43;99966.34;5007077;28;20021;-70
2022/11/08 07:47:36;;;;;;;55.65;36.42;;;;;;;12.20;86.89;99966.22;5004822;28;20029;-70
2022/11/08 07:50:02;;;;;;;57.83;35.90;;;;;;;12.21;86.72;99962.28;4985781;28;20089;-70
2022/11/08 07:52:28;;;;;;;62.17;36.72;;;;;;;12.18;86.44;99968.53;5007927;28;20037;-70
2022/11/08 07:54:53;;;;;;;57.08;38.33;;;;;;;12.18;87.37;99957.31;4988068;28;20022;-70
2022/11/08 07:57:19;;;;;;;60.83;37.78;;;;;;;12.15;87.59;99965.59;5006424;28;20030;-69
2022/11/08 07:59:44;;;;;;;63.55;36.75;;;;;;;12.25;87.45;99965.22;5009226;28;20170;-72
2022/11/08 08:02:11;;;;;;;64.53;38.13;;;;;;;12.35;86.47;99959.22;4994203;28;20085;-70
2022/11/08 08:04:36;;;;;;;62.13;38.00;;;;;;;12.32;86.89;99959.91;5010528;28;20053;-71
2022/11/08 08:07:05;;;;;;;60.08;38.20;;;;;;;12.26;86.97;99969.69;4994624;28;20054;-72
2022/11/08 08:09:33;;;;;;;58.80;38.92;;;;;;;12.30;86.44;99962.22;5011356;28;20574;-69
2022/11/08 08:11:59;;;;;;;64.25;40.65;;;;;;;12.43;86.24;99968.81;4989959;28;20026;-69
2022/11/08 08:14:26;;;;;;;65.75;40.22;;;;;;;12.40;86.57;99963.84;5009711;28;20066;-69
2022/11/08 08:16:51;;;;;;;70.32;41.55;;;;;;;12.40;86.87;99966.66;4991589;28;20022;-69
2022/11/08 08:19:17;;;;;;;82.70;51.83;;;;;;;12.42;86.02;99969.94;4993574;28;20048;-69
2022/11/08 08:21:42;;;;;;;85.65;50.13;;;;;;;12.48;85.74;99971.41;5011725;28;20036;-69
2022/11/08 08:24:08;;;;;;;95.38;53.40;;;;;;;12.54;85.73;99977.66;4993876;28;20021;-70
2022/11/08 08:26:33;;;;;;;98.13;58.22;;;;;;;12.70;84.42;99975.13;5011433;28;20119;-69
2022/11/08 08:28:59;;;;;;;89.85;56.45;;;;;;;12.76;84.86;99973.75;4993234;28;20025;-69
2022/11/08 08:31:24;;;;;;;81.43;54.42;;;;;;;12.83;82.61;99976.03;5011664;28;20076;-69
2022/11/08 08:33:50;;;;;;;85.10;53.55;;;;;;;12.92;82.18;99981.63;4990644;28;20022;-69
2022/11/08 08:36:15;;;;;;;81.93;55.72;;;;;;;13.04;82.34;99975.28;5004900;28;20026;-69
2022/11/08 08:38:41;;;;;;;86.13;57.83;;;;;;;13.08;82.23;99979.03;5011771;28;20104;-69
2022/11/08 08:41:06;;;;;;;99.40;68.60;;;;;;;13.10;81.55;99978.72;5010694;28;20026;-69
2022/11/08 08:43:32;;;;;;;92.50;59.05;;;;;;;13.04;81.40;99976.09;5011150;28;20041;-69
2022/11/08 08:45:59;;;;;;;75.68;48.75;;;;;;;13.10;81.99;99973.94;5010052;28;20481;-69
2022/11/08 08:48:24;;;;;;;70.60;46.63;;;;;;;13.11;81.55;99964.34;4993631;28;20137;-69
2022/11/08 08:50:49;;;;;;;77.25;46.30;;;;;;;13.30;80.93;99977.09;5011674;28;20018;-69
2022/11/08 08:53:15;;;;;;;92.50;54.80;;;;;;;13.36;81.04;99980.53;4993377;28;20029;-69
2022/11/08 08:55:41;;;;;;;84.43;53.78;;;;;;;13.41;80.91;99985.94;5011456;28;20029;-69
2022/11/08 08:58:08;;;;;;;71.35;46.92;;;;;;;13.39;79.83;99972.22;5008150;28;20048;-69
2022/11/08 09:00:33;;;;;;;59.60;40.80;;;;;;;13.44;80.59;99974.06;4989339;28;20049;-69
2022/11/08 09:03:07;;;;;;;76.60;45.20;;;;;;;13.61;79.70;99981.53;4994746;28;20030;-69
2022/11/08 09:05:33;;;;;;;69.28;45.08;;;;;;;13.49;79.87;99979.44;5010582;28;20108;-69
2022/11/08 09:07:58;;;;;;;77.07;48.33;;;;;;;13.58;78.23;99980.22;5010715;28;20029;-69
2022/11/08 09:10:24;;;;;;;76.43;47.88;;;;;;;13.53;79.25;99974.81;4992901;28;20112;-69
2022/11/08 09:12:50;;;;;;;74.80;50.05;;;;;;;13.47;78.47;99982.63;5010975;28;20054;-69
2022/11/08 09:15:16;;;;;;;74.53;48.38;;;;;;;13.47;78.04;99987.41;4990796;28;20045;-69
2022/11/08 09:17:42;;;;;;;100.75;48.92;;;;;;;13.47;77.89;99984.59;5010980;28;20025;-69
2022/11/08 09:20:09;;;;;;;70.95;42.90;;;;;;;13.62;77.07;99971.91;5010185;28;20080;-69
2022/11/08 09:22:35;;;;;;;65.30;43.63;;;;;;;13.87;76.33;99972.03;5006915;28;20073;-69
2022/11/08 09:25:00;;;;;;;73.65;43.35;;;;;;;14.02;75.58;99974.19;4976629;28;20023;-69
2022/11/08 09:27:28;;;;;;;69.20;44.03;;;;;;;14.18;75.30;99974.38;5010387;28;20500;-69
2022/11/08 09:29:54;;;;;;;69.57;38.92;;;;;;;14.11;75.09;99981.72;4991504;28;20413;-70
2022/11/08 09:32:20;;;;;;;72.20;42.08;;;;;;;14.09;74.50;99979.25;4999298;28;20413;-69
2022/11/08 09:34:45;;;;;;;62.28;38.47;;;;;;;14.09;75.03;99979.25;5003100;28;20022;-69
2022/11/08 09:37:10;;;;;;;62.15;38.83;;;;;;;14.15;74.90;99971.41;4999625;28;20093;-69
2022/11/08 09:39:36;;;;;;;56.47;36.10;;;;;;;14.14;74.11;99970.63;5009063;28;20056;-68
2022/11/08 09:42:26;;;;;;;52.65;34.53;;;;;;;14.14;73.43;99965.00;5006705;28;20025;-69
2022/11/08 09:44:57;;;;;;;77.70;46.05;;;;;;;14.27;73.80;99962.19;5008592;28;20034;-69
2022/11/08 09:47:28;;;;;;;66.68;38.22;;;;;;;14.29;73.53;99960.66;5005851;28;20393;-69
2022/11/08 09:49:56;;;;;;;62.72;38.05;;;;;;;14.53;72.82;99961.88;5001061;28;20034;-69
2022/11/08 09:52:27;;;;;;;62.45;36.42;;;;;;;14.82;71.87;99950.78;5004869;28;20041;-71
2022/11/08 09:55:17;;;;;;;55.55;34.63;;;;;;;14.93;69.80;99957.59;4992945;28;20420;-70
2022/11/08 09:58:01;;;;;;;54.13;34.87;;;;;;;14.90;70.07;99957.47;5005237;28;20037;-70
2022/11/08 10:00:27;;;;;;;58.40;32.88;;;;;;;14.97;69.21;99961.34;5012250;28;20096;-70
2022/11/08 10:02:53;;;;;;;48.67;31.88;;;;;;;15.11;69.18;99957.34;5012506;28;20500;-72
2022/11/08 10:05:19;;;;;;;46.50;32.38;;;;;;;15.34;68.77;99956.84;5012699;28;20133;-70
2022/11/08 10:08:02;;;;;;;53.10;32.33;;;;;;;15.41;67.59;99957.88;5008391;28;20038;-70
2022/11/08 10:10:43;;;;;;;45.58;31.23;;;;;;;15.45;67.51;99955.19;4987710;28;20497;-69
2022/11/08 10:13:15;;;;;;;50.00;30.48;;;;;;;15.50;66.82;99954.91;5005050;28;20037;-69
2022/11/08 10:16:01;;;;;;;51.33;34.38;;;;;;;15.78;66.53;99950.47;4991621;28;20477;-69
2022/11/08 10:18:40;;;;;;;49.13;32.45;;;;;;;15.92;65.76;99950.06;4989283;28;20117;-69
2022/11/08 10:21:25;;;;;;;50.83;31.13;;;;;;;16.03;65.50;99948.38;4993460;28;20061;-69
2022/11/08 10:23:59;;;;;;;43.53;28.98;;;;;;;16.05;63.75;99946.03;5008355;28;20472;-69
2022/11/08 10:26:33;;;;;;;47.55;30.30;;;;;;;16.14;63.83;99943.03;5006407;28;20543;-69
2022/11/08 10:29:07;;;;;;;50.42;31.48;;;;;;;16.37;63.81;99943.25;4997034;28;20037;-69
2022/11/08 10:31:35;;;;;;;59.53;31.50;;;;;;;16.60;63.20;99939.78;4993302;28;20526;-69
2022/11/08 10:34:03;;;;;;;46.50;28.00;;;;;;;16.55;61.58;99934.44;5022265;28;20045;-69
2022/11/08 10:36:45;;;;;;;47.33;28.42;;;;;;;16.49;62.50;99924.59;5029058;28;20037;-69
2022/11/08 10:39:17;;;;;;;42.92;27.95;;;;;;;16.70;61.32;99916.66;4996320;28;20083;-69
2022/11/08 10:42:01;;;;;;;49.13;29.88;;;;;;;16.60;62.91;99914.38;5011611;28;20038;-69
2022/11/08 10:44:27;;;;;;;52.88;30.38;;;;;;;16.41;63.02;99918.78;5005537;28;20460;-69
2022/11/08 10:46:56;;;;;;;51.60;31.15;;;;;;;16.28;63.68;99920.84;5011686;28;20467;-69
2022/11/08 10:49:26;;;;;;;60.97;31.33;;;;;;;16.39;63.78;99925.97;5009238;28;20053;-69
2022/11/08 10:51:54;;;;;;;45.88;30.15;;;;;;;16.42;63.34;99920.41;5008388;28;20033;-69
2022/11/08 10:54:47;;;;;;;44.67;27.50;;;;;;;16.55;62.40;99911.84;5028609;28;20026;-69
2022/11/08 10:57:26;;;;;;;49.38;31.42;;;;;;;16.73;61.97;99905.81;5013189;28;20116;-69
2022/11/08 10:59:53;;;;;;;49.97;29.88;;;;;;;16.92;60.58;99903.03;5011667;28;20063;-69
2022/11/08 11:02:24;;;;;;;41.95;28.10;;;;;;;17.02;60.63;99900.88;5007279;28;20028;-70
2022/11/08 11:04:51;;;;;;;47.75;29.90;;;;;;;17.28;60.24;99900.22;4991200;28;20033;-69
2022/11/08 11:07:34;;;;;;;47.20;27.20;;;;;;;16.77;59.89;99895.41;5009582;28;20504;-69
2022/11/08 11:10:22;;;;;;;43.42;27.35;;;;;;;16.73;59.46;99891.69;5008301;28;20095;-69
2022/11/08 11:12:50;;;;;;;45.22;29.25;;;;;;;16.77;61.30;99889.75;5012807;28;20477;-69
2022/11/08 11:15:16;;;;;;;44.17;29.40;;;;;;;16.78;59.37;99880.91;5002058;28;20045;-70
2022/11/08 11:17:45;;;;;;;44.15;28.40;;;;;;;17.08;59.80;99879.59;5007325;28;20511;-70
2022/11/08 11:20:22;;;;;;;50.03;29.38;;;;;;;17.18;59.81;99873.38;5010351;28;20508;-70
2022/11/08 11:22:50;;;;;;;55.22;31.33;;;;;;;17.24;59.58;99873.91;5011897;28;20029;-69
2022/11/08 11:25:21;;;;;;;47.38;31.23;;;;;;;17.10;61.00;99878.06;5010728;28;20029;-70
2022/11/08 11:27:54;;;;;;;46.85;29.95;;;;;;;16.89;60.95;99872.69;5017016;28;20034;-70
2022/11/08 11:30:34;;;;;;;46.63;27.77;;;;;;;17.02;60.96;99872.63;4990721;28;20039;-70
2022/11/08 11:33:24;;;;;;;51.45;28.67;;;;;;;17.03;60.40;99866.56;5009061;28;20022;-69
2022/11/08 11:35:52;;;;;;;48.28;29.10;;;;;;;17.08;60.52;99871.13;4989702;28;20431;-70
2022/11/08 11:38:34;;;;;;;52.78;30.10;;;;;;;17.11;60.52;99870.38;5010494;28;20038;-69
2022/11/08 11:41:08;;;;;;;50.00;30.65;;;;;;;17.31;60.01;99874.03;5010954;28;20036;-69